createdAt,value
2019-03-20T00:01:09.349Z,1.87
2019-03-20T00:03:38.500Z,1.47
2019-03-20T00:06:05.119Z,1.50
2019-03-20T00:09:26.745Z,1.63
2019-03-20T00:11:53.256Z,1.83
2019-03-20T00:14:19.830Z,1.57
2019-03-20T00:16:46.401Z,1.67
2019-03-20T00:19:13.281Z,1.90
2019-03-20T00:21:39.815Z,1.97
2019-03-20T00:24:06.320Z,2.30
2019-03-20T00:26:32.906Z,2.00
2019-03-20T00:28:59.650Z,1.33
2019-03-20T00:31:38.240Z,1.40
2019-03-20T00:36:48.574Z,1.77
2019-03-20T00:39:17.522Z,1.53
2019-03-20T00:41:44.081Z,1.80
2019-03-20T00:44:10.628Z,2.00
2019-03-20T00:46:39.288Z,1.70
2019-03-20T00:49:13.132Z,1.90
2019-03-20T00:52:02.869Z,1.50
2019-03-20T00:54:33.950Z,2.23
2019-03-20T00:57:01.435Z,2.00
2019-03-20T00:59:28.035Z,1.93
2019-03-20T01:01:59.111Z,1.70
2019-03-20T01:04:50.675Z,1.97
2019-03-20T01:07:51.753Z,1.53
2019-03-20T01:10:21.717Z,1.53
2019-03-20T01:12:54.446Z,1.50
2019-03-20T01:15:21.495Z,1.67
2019-03-20T01:17:48.151Z,1.47
2019-03-20T01:20:15.884Z,1.13
2019-03-20T01:22:43.854Z,1.37
2019-03-20T01:25:10.576Z,1.80
2019-03-20T01:27:37.163Z,1.63
2019-03-20T01:30:04.348Z,1.30
2019-03-20T01:32:30.950Z,1.50
2019-03-20T01:35:03.666Z,2.57
2019-03-20T01:37:43.552Z,2.13
2019-03-20T01:40:13.615Z,1.63
2019-03-20T01:42:49.682Z,1.63
2019-03-20T01:45:33.419Z,2.17
2019-03-20T01:48:04.000Z,1.67
2019-03-20T01:50:33.887Z,2.53
2019-03-20T01:53:03.652Z,1.33
2019-03-20T01:55:30.326Z,1.40
2019-03-20T01:57:57.258Z,2.00
2019-03-20T02:00:23.881Z,2.10
2019-03-20T02:02:51.308Z,1.77
2019-03-20T02:05:34.686Z,2.07
2019-03-20T02:07:52.452Z,1.23
2019-03-20T02:10:19.143Z,1.60
2019-03-20T02:12:45.793Z,1.53
2019-03-20T02:15:13.906Z,1.90
2019-03-20T02:17:40.674Z,1.70
2019-03-20T02:20:09.343Z,2.10
2019-03-20T02:22:35.904Z,1.30
2019-03-20T02:25:03.338Z,1.30
2019-03-20T02:27:29.837Z,1.50
2019-03-20T02:30:06.436Z,1.30
2019-03-20T02:32:33.042Z,1.40
2019-03-20T02:34:59.614Z,1.77
2019-03-20T02:37:26.547Z,1.37
2019-03-20T02:39:53.109Z,2.33
2019-03-20T02:42:19.653Z,1.63
2019-03-20T02:44:50.863Z,1.50
2019-03-20T02:47:22.170Z,1.80
2019-03-20T02:49:48.734Z,1.50
2019-03-20T02:52:17.892Z,1.17
2019-03-20T02:54:44.868Z,1.27
2019-03-20T02:57:17.491Z,0.73
2019-03-20T02:59:46.142Z,1.40
2019-03-20T03:02:13.021Z,1.43
2019-03-20T03:04:39.866Z,1.70
2019-03-20T03:07:07.677Z,1.63
2019-03-20T03:09:34.564Z,1.40
2019-03-20T03:12:01.066Z,1.10
2019-03-20T03:14:27.591Z,1.40
2019-03-20T03:16:55.710Z,1.00
2019-03-20T03:19:22.220Z,1.20
2019-03-20T03:21:56.103Z,1.07
2019-03-20T03:24:28.113Z,1.07
2019-03-20T03:26:57.596Z,1.43
2019-03-20T03:29:24.538Z,1.60
2019-03-20T03:31:51.170Z,1.73
2019-03-20T03:34:22.446Z,2.10
2019-03-20T03:36:49.340Z,1.00
2019-03-20T03:39:18.981Z,1.80
2019-03-20T03:41:48.558Z,1.53
2019-03-20T03:44:18.543Z,1.57
2019-03-20T03:49:49.197Z,1.00
2019-03-20T03:52:22.782Z,1.70
2019-03-20T03:54:49.790Z,1.20
2019-03-20T03:57:19.442Z,1.70
2019-03-20T03:59:46.397Z,1.43
2019-03-20T04:02:12.898Z,1.80
2019-03-20T04:04:39.428Z,1.30
2019-03-20T04:07:06.042Z,1.30
2019-03-20T04:09:32.612Z,1.30
2019-03-20T04:11:59.162Z,1.40
2019-03-20T04:14:25.765Z,1.77
2019-03-20T04:16:52.516Z,1.20
2019-03-20T04:19:19.014Z,0.90
2019-03-20T04:21:45.778Z,1.20
2019-03-20T04:24:12.346Z,1.40
2019-03-20T04:26:39.015Z,1.33
2019-03-20T04:29:05.602Z,2.03
2019-03-20T04:31:32.229Z,1.47
2019-03-20T04:33:58.948Z,1.50
2019-03-20T04:36:26.277Z,1.47
2019-03-20T04:38:59.055Z,1.60
2019-03-20T04:41:25.601Z,1.33
2019-03-20T04:43:57.116Z,1.73
2019-03-20T04:46:23.681Z,1.70
2019-03-20T04:48:53.223Z,1.60
2019-03-20T04:51:26.481Z,1.47
2019-03-20T04:53:56.214Z,2.27
2019-03-20T04:56:24.050Z,1.67
2019-03-20T04:58:51.615Z,1.13
2019-03-20T05:01:18.224Z,1.43
2019-03-20T05:03:51.872Z,1.30
2019-03-20T05:06:18.581Z,1.57
2019-03-20T05:08:48.536Z,1.23
2019-03-20T05:11:34.116Z,1.60
2019-03-20T05:14:01.006Z,1.43
2019-03-20T05:16:28.495Z,1.70
2019-03-20T05:18:55.139Z,1.67
2019-03-20T05:21:28.607Z,1.60
2019-03-20T05:23:57.290Z,1.47
2019-03-20T05:26:29.091Z,1.10
2019-03-20T05:28:56.072Z,1.20
2019-03-20T05:31:42.836Z,1.90
2019-03-20T05:34:09.474Z,1.60
2019-03-20T05:36:36.063Z,1.60
2019-03-20T05:39:05.291Z,2.60
2019-03-20T05:41:37.061Z,1.67
2019-03-20T05:44:03.778Z,2.53
2019-03-20T05:46:31.548Z,1.37
2019-03-20T05:48:58.391Z,1.47
2019-03-20T05:51:27.738Z,1.47
2019-03-20T05:53:58.175Z,1.80
2019-03-20T05:56:37.946Z,1.87
2019-03-20T05:59:09.887Z,1.33
2019-03-20T06:01:39.559Z,2.10
2019-03-20T06:04:09.388Z,2.00
2019-03-20T06:06:35.955Z,1.30
2019-03-20T06:09:05.704Z,2.33
2019-03-20T06:11:32.275Z,1.50
2019-03-20T06:13:59.147Z,1.67
2019-03-20T06:16:25.691Z,1.90
2019-03-20T06:18:55.605Z,1.60
2019-03-20T06:21:22.251Z,1.20
2019-03-20T06:23:58.155Z,1.50
2019-03-20T06:26:24.729Z,1.20
2019-03-20T06:28:55.242Z,1.40
2019-03-20T06:31:21.808Z,1.70
2019-03-20T06:33:48.862Z,1.60
2019-03-20T06:36:18.804Z,1.80
2019-03-20T06:38:45.390Z,1.47
2019-03-20T06:41:12.426Z,1.70
2019-03-20T06:43:39.849Z,1.47
2019-03-20T06:46:06.691Z,1.70
2019-03-20T06:48:33.278Z,1.37
2019-03-20T06:50:59.971Z,1.77
2019-03-20T06:53:28.760Z,1.90
2019-03-20T06:55:55.343Z,1.30
2019-03-20T06:58:24.755Z,1.70
2019-03-20T07:01:27.652Z,1.37
2019-03-20T07:04:18.272Z,1.63
2019-03-20T07:06:52.427Z,1.70
2019-03-20T07:09:29.719Z,1.43
2019-03-20T07:11:56.902Z,1.53
2019-03-20T07:14:23.521Z,1.67
2019-03-20T07:16:54.510Z,1.40
2019-03-20T07:19:21.437Z,1.53
2019-03-20T07:21:52.341Z,1.27
2019-03-20T07:24:19.357Z,1.20
2019-03-20T07:26:46.282Z,1.47
2019-03-20T07:29:12.921Z,2.73
2019-03-20T07:31:40.108Z,2.10
2019-03-20T07:34:08.070Z,1.50
2019-03-20T07:36:35.492Z,1.57
2019-03-20T07:39:04.101Z,1.77
2019-03-20T07:41:30.625Z,1.77
2019-03-20T07:43:57.323Z,1.63
2019-03-20T07:46:23.925Z,2.00
2019-03-20T07:48:51.575Z,2.80
2019-03-20T07:51:18.298Z,1.07
2019-03-20T07:53:44.839Z,1.37
2019-03-20T07:56:12.592Z,2.33
2019-03-20T07:58:39.282Z,1.70
2019-03-20T08:01:06.381Z,1.60
2019-03-20T08:03:34.803Z,2.10
2019-03-20T08:06:02.026Z,1.67
2019-03-20T08:08:29.691Z,1.57
2019-03-20T08:10:56.854Z,1.80
2019-03-20T08:13:23.893Z,2.10
2019-03-20T08:15:51.245Z,2.00
2019-03-20T08:18:17.885Z,2.13
2019-03-20T08:20:44.475Z,1.80
2019-03-20T08:23:13.466Z,2.30
2019-03-20T08:25:40.214Z,2.57
2019-03-20T08:28:06.935Z,2.77
2019-03-20T08:30:43.118Z,1.73
2019-03-20T08:33:09.649Z,1.60
2019-03-20T08:35:44.266Z,2.23
2019-03-20T08:38:18.140Z,2.00
2019-03-20T08:40:39.290Z,2.17
2019-03-20T08:43:05.854Z,1.90
2019-03-20T08:45:32.495Z,2.23
2019-03-20T08:48:00.603Z,1.70
2019-03-20T08:50:27.200Z,1.70
2019-03-20T08:52:55.134Z,1.70
2019-03-20T08:55:21.863Z,1.70
2019-03-20T08:57:48.751Z,1.67
2019-03-20T09:00:16.159Z,1.70
2019-03-20T09:02:42.889Z,2.10
2019-03-20T09:05:09.725Z,2.03
2019-03-20T09:07:46.696Z,1.67
2019-03-20T09:10:06.917Z,1.77
2019-03-20T09:12:33.475Z,1.63
2019-03-20T09:15:00.169Z,1.77
2019-03-20T09:17:27.095Z,1.50
2019-03-20T09:19:54.093Z,1.63
2019-03-20T09:22:20.619Z,1.93
2019-03-20T09:24:47.165Z,1.80
2019-03-20T09:27:14.190Z,2.33
2019-03-20T09:29:41.276Z,1.73
2019-03-20T09:32:07.959Z,2.10
2019-03-20T09:34:34.676Z,1.70
2019-03-20T09:37:01.435Z,1.87
2019-03-20T09:39:27.950Z,2.50
2019-03-20T09:41:54.645Z,2.47
2019-03-20T09:44:21.391Z,3.87
2019-03-20T09:46:47.952Z,3.97
2019-03-20T09:49:14.536Z,3.10
2019-03-20T09:51:41.139Z,3.30
2019-03-20T09:54:08.699Z,3.63
2019-03-20T09:56:35.391Z,4.77
2019-03-20T09:59:02.023Z,4.50
2019-03-20T10:01:28.705Z,4.93
2019-03-20T10:03:55.764Z,5.70
2019-03-20T10:06:22.736Z,5.80
2019-03-20T10:08:54.345Z,6.10
2019-03-20T10:11:20.192Z,6.13
2019-03-20T10:13:46.904Z,6.30
2019-03-20T10:16:13.440Z,6.13
2019-03-20T10:18:40.816Z,5.60
2019-03-20T10:21:07.526Z,7.90
2019-03-20T10:23:34.137Z,6.17
2019-03-20T10:26:01.013Z,6.33
2019-03-20T10:28:28.053Z,6.90
2019-03-20T10:30:54.876Z,7.40
2019-03-20T10:33:24.362Z,7.87
2019-03-20T10:35:51.074Z,7.83
2019-03-20T10:38:17.635Z,7.73
2019-03-20T10:40:44.346Z,7.47
2019-03-20T10:43:10.888Z,7.50
2019-03-20T10:45:37.704Z,8.57
2019-03-20T10:48:07.245Z,8.20
2019-03-20T10:50:34.080Z,7.87
2019-03-20T10:53:00.795Z,8.03
2019-03-20T10:55:52.381Z,7.27
2019-03-20T10:58:19.398Z,6.93
2019-03-20T11:00:46.353Z,6.20
2019-03-20T11:03:14.334Z,6.73
2019-03-20T11:05:42.289Z,6.67
2019-03-20T11:08:08.836Z,6.17
2019-03-20T11:10:36.222Z,7.70
2019-03-20T11:13:03.247Z,7.40
2019-03-20T11:15:29.998Z,7.87
2019-03-20T11:17:56.695Z,7.03
2019-03-20T11:20:23.421Z,7.57
2019-03-20T11:22:50.495Z,6.87
2019-03-20T11:25:19.433Z,7.53
2019-03-20T11:27:47.404Z,6.37
2019-03-20T11:30:20.609Z,6.67
2019-03-20T11:32:47.520Z,6.43
2019-03-20T11:35:14.221Z,6.17
2019-03-20T11:37:41.331Z,6.70
2019-03-20T11:40:10.679Z,6.67
2019-03-20T11:42:37.609Z,6.40
2019-03-20T11:45:04.955Z,6.77
2019-03-20T11:47:31.797Z,7.60
2019-03-20T11:49:58.578Z,7.07
2019-03-20T11:52:25.718Z,6.67
2019-03-20T11:54:52.939Z,6.13
2019-03-20T11:57:21.632Z,6.43
2019-03-20T11:59:48.157Z,6.10
2019-03-20T12:02:15.289Z,6.67
2019-03-20T12:04:42.126Z,6.53
2019-03-20T12:07:08.889Z,7.00
2019-03-20T12:09:41.227Z,6.87
2019-03-20T12:12:07.723Z,6.53
2019-03-20T12:14:34.305Z,7.10
2019-03-20T12:17:01.227Z,7.00
2019-03-20T12:19:27.929Z,6.70
2019-03-20T12:21:54.743Z,7.23
2019-03-20T12:24:21.348Z,8.00
2019-03-20T12:26:48.206Z,7.60
2019-03-20T12:29:14.809Z,7.17
2019-03-20T12:31:41.606Z,6.80
2019-03-20T12:34:08.251Z,6.33
2019-03-20T12:36:35.076Z,6.73
2019-03-20T12:39:01.658Z,6.93
2019-03-20T12:41:28.326Z,6.53
2019-03-20T12:43:55.998Z,6.80
2019-03-20T12:46:22.664Z,6.27
2019-03-20T12:48:49.325Z,7.07
2019-03-20T12:51:15.879Z,8.70
2019-03-20T12:53:43.541Z,7.33
2019-03-20T12:56:10.109Z,6.80
2019-03-20T12:58:36.618Z,6.53
2019-03-20T13:01:04.274Z,6.60
2019-03-20T13:03:31.009Z,7.00
2019-03-20T13:05:57.586Z,7.83
2019-03-20T13:08:24.669Z,7.50
2019-03-20T13:10:51.298Z,7.43
2019-03-20T13:13:19.964Z,7.13
2019-03-20T13:15:46.738Z,7.50
2019-03-20T13:18:17.434Z,7.61
2019-03-20T13:20:44.277Z,6.27
2019-03-20T13:23:12.775Z,8.60
2019-03-20T13:25:39.558Z,6.93
2019-03-20T13:28:06.566Z,7.47
2019-03-20T13:30:36.253Z,7.30
2019-03-20T13:33:03.409Z,7.30
2019-03-20T13:35:30.006Z,6.80
2019-03-20T13:37:56.935Z,6.93
2019-03-20T13:40:24.417Z,6.13
2019-03-20T13:42:51.088Z,5.23
2019-03-20T13:45:17.760Z,5.40
2019-03-20T13:47:44.473Z,5.40
2019-03-20T13:50:12.127Z,6.60
2019-03-20T13:52:40.346Z,6.87
2019-03-20T13:55:07.436Z,7.23
2019-03-20T13:57:34.240Z,6.87
2019-03-20T14:00:01.094Z,7.13
2019-03-20T14:02:27.730Z,7.27
2019-03-20T14:04:54.257Z,7.10
2019-03-20T14:07:21.395Z,6.00
2019-03-20T14:09:48.142Z,5.80
2019-03-20T14:12:15.009Z,4.53
2019-03-20T14:14:41.688Z,4.73
2019-03-20T14:17:08.451Z,4.40
2019-03-20T14:19:34.993Z,4.87
2019-03-20T14:22:01.701Z,4.70
2019-03-20T14:24:28.372Z,4.27
2019-03-20T14:26:54.915Z,4.23
2019-03-20T14:29:21.538Z,3.90
2019-03-20T14:31:48.622Z,4.10
2019-03-20T14:34:15.655Z,4.30
2019-03-20T14:36:42.236Z,5.10
2019-03-20T14:39:09.523Z,4.87
2019-03-20T14:41:36.147Z,4.33
2019-03-20T14:44:02.908Z,4.40
2019-03-20T14:46:29.493Z,3.90
2019-03-20T14:48:56.549Z,4.13
2019-03-20T14:51:23.387Z,3.83
2019-03-20T14:53:50.054Z,4.70
2019-03-20T14:56:18.269Z,4.67
2019-03-20T14:58:45.354Z,4.70
2019-03-20T15:01:12.465Z,4.27
2019-03-20T15:03:39.737Z,4.40
2019-03-20T15:06:06.966Z,5.53
2019-03-20T15:08:33.676Z,3.63
2019-03-20T15:11:00.825Z,3.03
2019-03-20T15:13:28.473Z,3.50
2019-03-20T15:15:57.016Z,4.30
2019-03-20T15:18:23.793Z,4.30
2019-03-20T15:20:50.449Z,3.83
2019-03-20T15:23:17.124Z,4.20
2019-03-20T15:25:43.918Z,2.97
2019-03-20T15:28:10.603Z,3.20
2019-03-20T15:30:37.515Z,3.33
2019-03-20T15:33:04.842Z,3.13
2019-03-20T15:35:31.405Z,3.73
2019-03-20T15:37:58.367Z,3.23
2019-03-20T15:40:25.063Z,3.07
2019-03-20T15:42:51.800Z,4.07
2019-03-20T15:45:18.503Z,3.53
2019-03-20T15:47:45.395Z,3.63
2019-03-20T15:50:13.618Z,3.60
2019-03-20T15:52:40.214Z,4.40
2019-03-20T15:55:12.943Z,5.10
2019-03-20T15:57:40.283Z,6.50
2019-03-20T16:00:12.306Z,4.73
2019-03-20T16:02:39.187Z,4.33
2019-03-20T16:05:06.866Z,3.83
2019-03-20T16:07:34.426Z,3.70
2019-03-20T16:10:04.332Z,4.33
2019-03-20T16:12:31.166Z,4.10
2019-03-20T16:14:57.992Z,3.53
2019-03-20T16:17:24.711Z,3.13
2019-03-20T16:19:53.694Z,3.13
2019-03-20T16:22:20.275Z,4.03
2019-03-20T16:24:46.825Z,3.67
2019-03-20T16:27:13.398Z,4.63
2019-03-20T16:29:41.236Z,3.60
2019-03-20T16:32:08.081Z,4.53
2019-03-20T16:34:34.698Z,3.63
2019-03-20T16:37:01.299Z,4.50
2019-03-20T16:39:28.116Z,4.10
2019-03-20T16:41:54.638Z,4.00
2019-03-20T16:44:21.226Z,4.00
2019-03-20T16:46:48.311Z,3.27
2019-03-20T16:49:14.951Z,3.70
2019-03-20T16:51:41.538Z,4.67
2019-03-20T16:54:08.506Z,4.60
2019-03-20T16:56:35.288Z,3.73
2019-03-20T16:59:01.948Z,4.13
2019-03-20T17:01:28.629Z,3.53
2019-03-20T17:03:55.255Z,3.77
2019-03-20T17:06:23.007Z,3.33
2019-03-20T17:08:49.676Z,3.60
2019-03-20T17:11:26.463Z,3.90
2019-03-20T17:13:46.136Z,3.80
2019-03-20T17:16:12.677Z,4.07
2019-03-20T17:18:39.413Z,4.43
2019-03-20T17:21:06.123Z,5.20
2019-03-20T17:23:32.717Z,4.83
2019-03-20T17:25:59.335Z,4.40
2019-03-20T17:28:25.894Z,4.60
2019-03-20T17:30:52.679Z,4.20
2019-03-20T17:33:20.018Z,5.07
2019-03-20T17:35:46.700Z,3.47
2019-03-20T17:38:13.407Z,4.10
2019-03-20T17:40:39.969Z,3.57
2019-03-20T17:43:06.822Z,3.30
2019-03-20T17:45:34.173Z,3.20
2019-03-20T17:48:01.027Z,3.93
2019-03-20T17:50:29.198Z,3.73
2019-03-20T17:52:58.404Z,3.40
2019-03-20T17:55:25.719Z,3.37
2019-03-20T17:57:52.211Z,3.70
2019-03-20T18:00:27.420Z,3.23
2019-03-20T18:02:54.233Z,3.30
2019-03-20T18:05:21.082Z,2.80
2019-03-20T18:07:50.325Z,2.80
2019-03-20T18:10:17.307Z,3.00
2019-03-20T18:12:43.998Z,2.30
2019-03-20T18:15:11.080Z,2.40
2019-03-20T18:17:37.830Z,2.87
2019-03-20T18:20:05.131Z,2.70
2019-03-20T18:22:31.576Z,2.80
2019-03-20T18:24:58.154Z,3.13
2019-03-20T18:27:24.641Z,3.20
2019-03-20T18:29:52.602Z,2.90
2019-03-20T18:32:19.075Z,2.73
2019-03-20T18:34:45.714Z,3.60
2019-03-20T18:37:15.309Z,2.70
2019-03-20T18:39:42.205Z,2.73
2019-03-20T18:42:09.696Z,3.23
2019-03-20T18:44:36.375Z,2.60
2019-03-20T18:47:07.299Z,3.13
2019-03-20T18:49:33.806Z,3.60
2019-03-20T18:52:00.812Z,2.47
2019-03-20T18:54:27.678Z,3.10
2019-03-20T18:56:54.463Z,2.66
2019-03-20T18:59:21.376Z,3.00
2019-03-20T19:01:50.757Z,2.70
2019-03-20T19:04:17.267Z,2.83
2019-03-20T19:06:43.806Z,3.20
2019-03-20T19:09:10.313Z,3.70
2019-03-20T19:11:38.984Z,4.77
2019-03-20T19:14:05.853Z,3.63
2019-03-20T19:16:33.056Z,3.10
2019-03-20T19:18:59.949Z,3.57
2019-03-20T19:21:26.624Z,4.27
2019-03-20T19:23:53.515Z,4.00
2019-03-20T19:26:20.036Z,4.30
2019-03-20T19:28:46.886Z,3.87
2019-03-20T19:31:14.033Z,5.10
2019-03-20T19:33:42.630Z,4.53
2019-03-20T19:36:09.201Z,4.60
2019-03-20T19:38:35.950Z,4.77
2019-03-20T19:41:02.956Z,5.13
2019-03-20T19:43:29.458Z,5.37
2019-03-20T19:45:56.064Z,5.47
2019-03-20T19:48:22.755Z,5.37
2019-03-20T19:50:49.343Z,6.10
2019-03-20T19:53:16.355Z,5.90
2019-03-20T19:55:42.989Z,5.90
2019-03-20T19:58:09.575Z,6.30
2019-03-20T20:00:36.394Z,6.00
2019-03-20T20:03:03.348Z,6.83
2019-03-20T20:05:29.952Z,5.60
2019-03-20T20:07:56.522Z,5.57
2019-03-20T20:10:23.040Z,5.10
2019-03-20T20:12:49.729Z,5.27
2019-03-20T20:15:19.414Z,4.70
2019-03-20T20:17:46.999Z,4.93
2019-03-20T20:20:16.327Z,5.10
2019-03-20T20:22:43.437Z,4.40
2019-03-20T20:25:10.148Z,4.40
2019-03-20T20:27:36.796Z,5.03
2019-03-20T20:30:03.925Z,5.00
2019-03-20T20:32:35.234Z,4.30
2019-03-20T20:35:01.891Z,4.60
2019-03-20T20:37:28.477Z,4.03
2019-03-20T20:39:55.161Z,4.00
2019-03-20T20:42:21.778Z,4.93
2019-03-20T20:44:48.343Z,3.93
2019-03-20T20:47:14.845Z,4.50
2019-03-20T20:49:41.719Z,4.17
2019-03-20T20:52:18.756Z,4.60
2019-03-20T20:54:36.651Z,3.77
2019-03-20T20:57:03.608Z,4.67
2019-03-20T20:59:30.561Z,4.10
2019-03-20T21:01:57.130Z,3.90
2019-03-20T21:04:23.685Z,4.37
2019-03-20T21:06:50.244Z,3.93
2019-03-20T21:09:16.975Z,5.17
2019-03-20T21:11:43.509Z,3.90
2019-03-20T21:14:10.587Z,3.67
2019-03-20T21:16:37.621Z,4.00
2019-03-20T21:19:36.723Z,4.00
2019-03-20T21:22:46.624Z,3.70
2019-03-20T21:25:16.043Z,3.80
2019-03-20T21:28:21.896Z,3.47
2019-03-20T21:31:00.211Z,3.70
2019-03-20T21:33:49.693Z,3.80
2019-03-20T21:37:04.277Z,3.46
2019-03-20T21:39:32.566Z,4.07
2019-03-20T21:42:44.724Z,3.33
2019-03-20T21:45:39.107Z,3.30
2019-03-20T21:48:14.806Z,3.40
2019-03-20T21:51:09.932Z,3.37
2019-03-20T21:54:18.521Z,3.80
2019-03-20T21:57:33.445Z,4.00
2019-03-20T22:00:42.338Z,3.60
2019-03-20T22:03:09.400Z,3.70
2019-03-20T22:06:14.055Z,3.60
2019-03-20T22:08:43.226Z,3.83
2019-03-20T22:11:56.770Z,3.83
2019-03-20T22:14:23.909Z,3.50
2019-03-20T22:17:50.277Z,3.13
2019-03-20T22:20:43.154Z,2.93
2019-03-20T22:23:54.874Z,3.03
2019-03-20T22:26:56.150Z,3.43
2019-03-20T22:29:24.715Z,4.13
2019-03-20T22:32:41.553Z,3.23
2019-03-20T22:35:53.821Z,4.13
2019-03-20T22:39:04.112Z,3.60
2019-03-20T22:42:08.055Z,3.47
2019-03-20T22:44:38.799Z,3.70
2019-03-20T22:47:41.070Z,3.57
2019-03-20T22:50:33.482Z,3.43
2019-03-20T22:53:29.392Z,3.40
2019-03-20T22:56:26.092Z,3.63
2019-03-20T22:58:53.298Z,3.40
2019-03-20T23:01:48.027Z,3.40
2019-03-20T23:04:22.071Z,3.17
2019-03-20T23:06:49.178Z,3.10
2019-03-20T23:09:16.248Z,3.57
2019-03-20T23:11:45.430Z,3.10
2019-03-20T23:14:12.542Z,3.70
2019-03-20T23:16:39.666Z,3.40
2019-03-20T23:19:06.900Z,3.80
2019-03-20T23:21:33.986Z,3.60
2019-03-20T23:24:03.319Z,3.90
2019-03-20T23:26:30.522Z,4.00
2019-03-20T23:28:57.799Z,3.67
2019-03-20T23:31:30.905Z,3.83
2019-03-20T23:33:58.340Z,3.77
2019-03-20T23:36:26.046Z,4.33
2019-03-20T23:38:53.120Z,3.47
2019-03-20T23:41:20.171Z,3.43
2019-03-20T23:43:52.836Z,3.63
2019-03-20T23:46:16.487Z,3.50
2019-03-20T23:48:50.104Z,3.30
2019-03-20T23:51:27.483Z,3.70
2019-03-20T23:53:55.485Z,3.57
2019-03-20T23:56:23.782Z,3.93
2019-03-20T23:58:51.217Z,3.77
